KRYV

Details ICAO KRYV
Name Watertown Muni
Region United States
Timezone America/Chicago (UTC-5.0)
Plans Departing 11
Arriving 4
Stats Elevation 833 ft / 254 m (AMSL)
Location 43.169845° -88.722947°
Runways 2
Magnetic Variation 3.291° W
Sunrise 2018-05-27 10:22:18 UTC / 2018-05-27 05:22:18 Local
Sunset 2018-05-28 01:24:44 UTC / 2018-05-27 20:24:44 Local
Advertisement - Login to hide

Runways

ID Width Length Bearing (true) Bearing (mag) Surface Threshold Offset Overrun Length
05 75 ft / 23 m 4,425 ft / 1,349 m 53.09° 56.38° Asphalt 200 ft / 61 m 400 ft / 122 m
11 75 ft / 23 m 2,817 ft / 859 m 113.31° 116.60° Asphalt 0 ft / 0 m 0 ft / 0 m
23 75 ft / 23 m 4,425 ft / 1,349 m 233.10° 236.39° Asphalt 0 ft / 0 m 400 ft / 122 m
29 75 ft / 23 m 2,817 ft / 859 m 293.32° 296.61° Asphalt 0 ft / 0 m 0 ft / 0 m

Map

Weather


0- 5 10 15 20 25 30 35+ Temperature / ° C

Clouds and Precipitation
Forecast for 2018-05-27 18:00 UTC. Updated 3 hours ago

Ground ~20,000 ft ~40,000 ft Winds

METAR

KRYV 272035Z AUTO 25005KT 10SM SCT090 33/17 A2984 RMK AO2 LTG DSNT S AND SW T03320170

TAF

Not found

Frequencies

Recorded 119.97 MHz AWOS 3
Approach 119.15 MHz MADISON APP/DEP
Unicom 122.80 MHz CTAF/UNICOM
Warning: Do not use this data for real-world aviation or navigation. No guarantee of current accuracy is given.